sensor_id;sensor_type;location;lat;lon;timestamp;P1;durP1;ratioP1;P2;durP2;ratioP2
70592;SDS011;58294;42.988;20.338;2024-02-26T00:01:42;95.43;;;73.57;;
70592;SDS011;58294;42.988;20.338;2024-02-26T00:04:09;105.93;;;83.70;;
70592;SDS011;58294;42.988;20.338;2024-02-26T00:06:35;71.20;;;52.40;;
70592;SDS011;58294;42.988;20.338;2024-02-26T00:09:02;65.95;;;48.58;;
70592;SDS011;58294;42.988;20.338;2024-02-26T00:11:31;68.80;;;52.97;;
70592;SDS011;58294;42.988;20.338;2024-02-26T00:13:56;63.85;;;46.88;;
70592;SDS011;58294;42.988;20.338;2024-02-26T00:16:23;63.30;;;45.20;;
70592;SDS011;58294;42.988;20.338;2024-02-26T00:18:49;61.83;;;49.13;;
70592;SDS011;58294;42.988;20.338;2024-02-26T00:21:15;68.75;;;51.90;;
70592;SDS011;58294;42.988;20.338;2024-02-26T00:23:41;82.28;;;55.05;;
70592;SDS011;58294;42.988;20.338;2024-02-26T00:26:07;75.05;;;53.47;;
70592;SDS011;58294;42.988;20.338;2024-02-26T00:28:33;81.30;;;55.00;;
70592;SDS011;58294;42.988;20.338;2024-02-26T00:30:59;66.03;;;51.47;;
70592;SDS011;58294;42.988;20.338;2024-02-26T00:33:24;65.88;;;50.58;;
70592;SDS011;58294;42.988;20.338;2024-02-26T00:35:50;70.32;;;51.45;;
70592;SDS011;58294;42.988;20.338;2024-02-26T00:38:16;64.47;;;48.05;;
70592;SDS011;58294;42.988;20.338;2024-02-26T00:40:42;60.75;;;48.60;;
70592;SDS011;58294;42.988;20.338;2024-02-26T00:43:08;62.47;;;44.28;;
70592;SDS011;58294;42.988;20.338;2024-02-26T00:45:34;56.25;;;42.28;;
70592;SDS011;58294;42.988;20.338;2024-02-26T00:47:59;60.15;;;45.90;;
70592;SDS011;58294;42.988;20.338;2024-02-26T00:50:29;58.47;;;40.08;;
70592;SDS011;58294;42.988;20.338;2024-02-26T00:52:56;55.42;;;44.42;;
70592;SDS011;58294;42.988;20.338;2024-02-26T00:55:21;53.15;;;41.00;;
70592;SDS011;58294;42.988;20.338;2024-02-26T00:57:48;52.40;;;38.20;;
70592;SDS011;58294;42.988;20.338;2024-02-26T01:00:13;45.10;;;35.53;;
70592;SDS011;58294;42.988;20.338;2024-02-26T01:02:40;51.70;;;43.13;;
70592;SDS011;58294;42.988;20.338;2024-02-26T01:05:07;44.42;;;36.30;;
70592;SDS011;58294;42.988;20.338;2024-02-26T01:07:36;50.67;;;37.65;;
70592;SDS011;58294;42.988;20.338;2024-02-26T01:10:02;41.65;;;32.13;;
70592;SDS011;58294;42.988;20.338;2024-02-26T01:12:28;43.75;;;31.95;;
70592;SDS011;58294;42.988;20.338;2024-02-26T01:14:54;40.85;;;32.38;;
70592;SDS011;58294;42.988;20.338;2024-02-26T01:17:20;37.67;;;29.95;;
70592;SDS011;58294;42.988;20.338;2024-02-26T01:19:46;39.22;;;31.33;;
70592;SDS011;58294;42.988;20.338;2024-02-26T01:22:12;45.40;;;33.70;;
70592;SDS011;58294;42.988;20.338;2024-02-26T01:24:38;55.40;;;46.22;;
70592;SDS011;58294;42.988;20.338;2024-02-26T01:27:04;51.55;;;40.00;;
70592;SDS011;58294;42.988;20.338;2024-02-26T01:29:30;46.10;;;34.38;;
70592;SDS011;58294;42.988;20.338;2024-02-26T01:31:55;41.88;;;33.28;;
70592;SDS011;58294;42.988;20.338;2024-02-26T01:34:21;50.72;;;41.22;;
70592;SDS011;58294;42.988;20.338;2024-02-26T01:36:47;86.82;;;74.50;;
70592;SDS011;58294;42.988;20.338;2024-02-26T01:39:13;128.38;;;102.97;;
70592;SDS011;58294;42.988;20.338;2024-02-26T01:41:39;464.80;;;327.42;;
70592;SDS011;58294;42.988;20.338;2024-02-26T01:44:06;113.68;;;65.00;;
70592;SDS011;58294;42.988;20.338;2024-02-26T01:46:33;139.60;;;86.03;;
70592;SDS011;58294;42.988;20.338;2024-02-26T01:49:01;311.08;;;184.60;;
70592;SDS011;58294;42.988;20.338;2024-02-26T01:51:28;123.35;;;76.43;;
70592;SDS011;58294;42.988;20.338;2024-02-26T01:53:55;74.20;;;45.45;;
70592;SDS011;58294;42.988;20.338;2024-02-26T01:56:21;55.38;;;36.50;;
70592;SDS011;58294;42.988;20.338;2024-02-26T01:58:47;279.98;;;170.43;;
70592;SDS011;58294;42.988;20.338;2024-02-26T02:01:14;198.35;;;121.43;;
70592;SDS011;58294;42.988;20.338;2024-02-26T02:03:43;71.05;;;46.65;;
70592;SDS011;58294;42.988;20.338;2024-02-26T02:06:10;46.90;;;34.55;;
70592;SDS011;58294;42.988;20.338;2024-02-26T02:08:37;69.20;;;49.80;;
70592;SDS011;58294;42.988;20.338;2024-02-26T02:11:04;47.97;;;32.13;;
70592;SDS011;58294;42.988;20.338;2024-02-26T02:13:31;37.58;;;28.95;;
70592;SDS011;58294;42.988;20.338;2024-02-26T02:15:56;38.00;;;30.17;;
70592;SDS011;58294;42.988;20.338;2024-02-26T02:18:22;40.53;;;31.08;;
70592;SDS011;58294;42.988;20.338;2024-02-26T02:20:48;37.45;;;30.42;;
70592;SDS011;58294;42.988;20.338;2024-02-26T02:23:14;38.67;;;30.65;;
70592;SDS011;58294;42.988;20.338;2024-02-26T02:25:40;40.25;;;30.58;;
70592;SDS011;58294;42.988;20.338;2024-02-26T02:28:05;37.35;;;28.65;;
70592;SDS011;58294;42.988;20.338;2024-02-26T02:30:31;36.20;;;27.48;;
70592;SDS011;58294;42.988;20.338;2024-02-26T02:33:00;37.60;;;27.73;;
70592;SDS011;58294;42.988;20.338;2024-02-26T02:35:26;37.00;;;29.92;;
70592;SDS011;58294;42.988;20.338;2024-02-26T02:37:52;37.92;;;29.38;;
70592;SDS011;58294;42.988;20.338;2024-02-26T02:40:18;43.47;;;31.55;;
70592;SDS011;58294;42.988;20.338;2024-02-26T02:42:44;44.25;;;32.38;;
70592;SDS011;58294;42.988;20.338;2024-02-26T02:45:09;45.38;;;35.65;;
70592;SDS011;58294;42.988;20.338;2024-02-26T02:47:36;48.60;;;38.22;;
70592;SDS011;58294;42.988;20.338;2024-02-26T02:50:02;60.40;;;41.60;;
70592;SDS011;58294;42.988;20.338;2024-02-26T02:52:28;47.70;;;35.33;;
70592;SDS011;58294;42.988;20.338;2024-02-26T02:54:54;59.97;;;44.05;;
70592;SDS011;58294;42.988;20.338;2024-02-26T02:57:20;58.35;;;42.72;;
70592;SDS011;58294;42.988;20.338;2024-02-26T02:59:46;52.70;;;39.58;;
70592;SDS011;58294;42.988;20.338;2024-02-26T03:02:12;52.47;;;38.28;;
70592;SDS011;58294;42.988;20.338;2024-02-26T03:04:38;51.22;;;38.30;;
70592;SDS011;58294;42.988;20.338;2024-02-26T03:07:03;53.50;;;39.22;;
70592;SDS011;58294;42.988;20.338;2024-02-26T03:09:30;44.92;;;36.17;;
70592;SDS011;58294;42.988;20.338;2024-02-26T03:11:55;40.90;;;30.88;;
70592;SDS011;58294;42.988;20.338;2024-02-26T03:14:21;47.65;;;35.47;;
70592;SDS011;58294;42.988;20.338;2024-02-26T03:16:47;62.30;;;49.97;;
70592;SDS011;58294;42.988;20.338;2024-02-26T03:19:16;48.95;;;36.00;;
70592;SDS011;58294;42.988;20.338;2024-02-26T03:21:42;124.75;;;85.82;;
70592;SDS011;58294;42.988;20.338;2024-02-26T03:24:08;66.13;;;49.65;;
70592;SDS011;58294;42.988;20.338;2024-02-26T03:26:37;43.80;;;34.10;;
70592;SDS011;58294;42.988;20.338;2024-02-26T03:29:03;38.47;;;32.80;;
70592;SDS011;58294;42.988;20.338;2024-02-26T03:31:30;42.83;;;33.35;;
70592;SDS011;58294;42.988;20.338;2024-02-26T03:33:56;55.47;;;41.30;;
70592;SDS011;58294;42.988;20.338;2024-02-26T03:36:21;72.70;;;50.70;;
70592;SDS011;58294;42.988;20.338;2024-02-26T03:38:48;81.10;;;59.22;;
70592;SDS011;58294;42.988;20.338;2024-02-26T03:41:14;101.53;;;68.88;;
70592;SDS011;58294;42.988;20.338;2024-02-26T03:43:39;67.28;;;44.72;;
70592;SDS011;58294;42.988;20.338;2024-02-26T03:46:08;54.45;;;40.53;;
70592;SDS011;58294;42.988;20.338;2024-02-26T03:48:36;56.53;;;43.78;;
70592;SDS011;58294;42.988;20.338;2024-02-26T03:51:02;54.20;;;41.55;;
70592;SDS011;58294;42.988;20.338;2024-02-26T03:53:28;51.67;;;42.97;;
70592;SDS011;58294;42.988;20.338;2024-02-26T03:55:54;53.45;;;41.90;;
70592;SDS011;58294;42.988;20.338;2024-02-26T03:58:20;57.67;;;42.33;;
70592;SDS011;58294;42.988;20.338;2024-02-26T04:00:46;60.42;;;46.38;;
70592;SDS011;58294;42.988;20.338;2024-02-26T04:03:13;64.82;;;52.22;;
70592;SDS011;58294;42.988;20.338;2024-02-26T04:05:39;79.55;;;54.88;;
70592;SDS011;58294;42.988;20.338;2024-02-26T04:08:05;71.53;;;54.55;;
70592;SDS011;58294;42.988;20.338;2024-02-26T04:10:32;75.82;;;56.55;;
70592;SDS011;58294;42.988;20.338;2024-02-26T04:13:00;86.63;;;59.58;;
70592;SDS011;58294;42.988;20.338;2024-02-26T04:15:26;74.65;;;53.22;;
70592;SDS011;58294;42.988;20.338;2024-02-26T04:17:52;54.22;;;39.88;;
70592;SDS011;58294;42.988;20.338;2024-02-26T04:20:17;181.02;;;141.45;;
70592;SDS011;58294;42.988;20.338;2024-02-26T04:22:43;344.45;;;269.42;;
70592;SDS011;58294;42.988;20.338;2024-02-26T04:25:09;157.90;;;121.13;;
70592;SDS011;58294;42.988;20.338;2024-02-26T04:27:35;200.48;;;158.20;;
70592;SDS011;58294;42.988;20.338;2024-02-26T04:30:01;75.25;;;49.10;;
70592;SDS011;58294;42.988;20.338;2024-02-26T04:32:29;131.35;;;105.25;;
70592;SDS011;58294;42.988;20.338;2024-02-26T04:34:54;152.55;;;110.20;;
70592;SDS011;58294;42.988;20.338;2024-02-26T04:37:20;104.18;;;75.97;;
70592;SDS011;58294;42.988;20.338;2024-02-26T04:39:46;138.00;;;89.68;;
70592;SDS011;58294;42.988;20.338;2024-02-26T04:42:12;107.78;;;77.10;;
70592;SDS011;58294;42.988;20.338;2024-02-26T04:44:38;124.70;;;87.07;;
70592;SDS011;58294;42.988;20.338;2024-02-26T04:47:04;586.85;;;478.45;;
70592;SDS011;58294;42.988;20.338;2024-02-26T04:49:30;373.50;;;295.63;;
70592;SDS011;58294;42.988;20.338;2024-02-26T04:51:56;98.60;;;73.53;;
70592;SDS011;58294;42.988;20.338;2024-02-26T04:54:21;42.65;;;32.33;;
70592;SDS011;58294;42.988;20.338;2024-02-26T04:56:47;37.50;;;30.10;;
70592;SDS011;58294;42.988;20.338;2024-02-26T04:59:13;42.90;;;35.33;;
70592;SDS011;58294;42.988;20.338;2024-02-26T05:01:39;56.35;;;43.58;;
70592;SDS011;58294;42.988;20.338;2024-02-26T05:04:05;47.47;;;38.20;;
70592;SDS011;58294;42.988;20.338;2024-02-26T05:06:31;37.45;;;30.83;;
70592;SDS011;58294;42.988;20.338;2024-02-26T05:08:56;42.55;;;31.58;;
70592;SDS011;58294;42.988;20.338;2024-02-26T05:11:22;49.83;;;38.92;;
70592;SDS011;58294;42.988;20.338;2024-02-26T05:13:48;54.88;;;44.00;;
70592;SDS011;58294;42.988;20.338;2024-02-26T05:16:14;56.70;;;42.78;;
70592;SDS011;58294;42.988;20.338;2024-02-26T05:18:40;49.00;;;39.33;;
70592;SDS011;58294;42.988;20.338;2024-02-26T05:21:05;58.75;;;42.50;;
70592;SDS011;58294;42.988;20.338;2024-02-26T05:23:31;51.15;;;37.25;;
70592;SDS011;58294;42.988;20.338;2024-02-26T05:25:57;41.80;;;33.33;;
70592;SDS011;58294;42.988;20.338;2024-02-26T05:28:23;46.28;;;35.95;;
70592;SDS011;58294;42.988;20.338;2024-02-26T05:30:48;47.25;;;35.55;;
70592;SDS011;58294;42.988;20.338;2024-02-26T05:33:14;53.35;;;38.85;;
70592;SDS011;58294;42.988;20.338;2024-02-26T05:35:40;39.17;;;31.05;;
70592;SDS011;58294;42.988;20.338;2024-02-26T05:38:06;34.53;;;27.27;;
70592;SDS011;58294;42.988;20.338;2024-02-26T05:40:31;58.35;;;44.40;;
70592;SDS011;58294;42.988;20.338;2024-02-26T05:42:57;133.07;;;103.95;;
70592;SDS011;58294;42.988;20.338;2024-02-26T05:45:23;53.42;;;39.83;;
70592;SDS011;58294;42.988;20.338;2024-02-26T05:47:49;172.32;;;123.43;;
70592;SDS011;58294;42.988;20.338;2024-02-26T05:50:15;122.05;;;86.05;;
70592;SDS011;58294;42.988;20.338;2024-02-26T05:52:41;64.55;;;45.20;;
70592;SDS011;58294;42.988;20.338;2024-02-26T05:55:07;79.75;;;62.92;;
70592;SDS011;58294;42.988;20.338;2024-02-26T05:57:33;65.13;;;46.05;;
70592;SDS011;58294;42.988;20.338;2024-02-26T06:00:00;70.38;;;52.47;;
70592;SDS011;58294;42.988;20.338;2024-02-26T06:02:29;92.13;;;71.85;;
70592;SDS011;58294;42.988;20.338;2024-02-26T06:04:55;85.22;;;61.50;;
70592;SDS011;58294;42.988;20.338;2024-02-26T06:07:21;45.42;;;33.40;;
70592;SDS011;58294;42.988;20.338;2024-02-26T06:09:47;35.70;;;29.02;;
70592;SDS011;58294;42.988;20.338;2024-02-26T06:12:13;52.03;;;41.00;;
70592;SDS011;58294;42.988;20.338;2024-02-26T06:14:39;62.92;;;46.08;;
70592;SDS011;58294;42.988;20.338;2024-02-26T06:17:07;58.90;;;43.92;;
70592;SDS011;58294;42.988;20.338;2024-02-26T06:19:33;91.75;;;65.13;;
70592;SDS011;58294;42.988;20.338;2024-02-26T06:21:58;59.28;;;47.67;;
70592;SDS011;58294;42.988;20.338;2024-02-26T06:24:24;48.97;;;34.85;;
70592;SDS011;58294;42.988;20.338;2024-02-26T06:26:50;136.82;;;100.38;;
70592;SDS011;58294;42.988;20.338;2024-02-26T06:29:16;78.55;;;57.15;;
70592;SDS011;58294;42.988;20.338;2024-02-26T06:31:42;50.88;;;38.13;;
70592;SDS011;58294;42.988;20.338;2024-02-26T06:34:08;37.50;;;30.30;;
70592;SDS011;58294;42.988;20.338;2024-02-26T06:36:34;52.88;;;40.78;;
70592;SDS011;58294;42.988;20.338;2024-02-26T06:39:00;57.60;;;42.42;;
70592;SDS011;58294;42.988;20.338;2024-02-26T06:41:26;56.03;;;42.67;;
70592;SDS011;58294;42.988;20.338;2024-02-26T06:43:55;52.38;;;40.00;;
70592;SDS011;58294;42.988;20.338;2024-02-26T06:46:21;72.57;;;55.95;;
70592;SDS011;58294;42.988;20.338;2024-02-26T06:48:48;66.97;;;49.83;;
70592;SDS011;58294;42.988;20.338;2024-02-26T06:51:14;87.63;;;63.03;;
70592;SDS011;58294;42.988;20.338;2024-02-26T06:53:40;103.15;;;73.13;;
70592;SDS011;58294;42.988;20.338;2024-02-26T06:56:06;98.50;;;76.18;;
70592;SDS011;58294;42.988;20.338;2024-02-26T06:58:32;101.57;;;75.20;;
70592;SDS011;58294;42.988;20.338;2024-02-26T07:00:58;110.35;;;86.28;;
70592;SDS011;58294;42.988;20.338;2024-02-26T07:03:23;112.60;;;85.28;;
70592;SDS011;58294;42.988;20.338;2024-02-26T07:05:50;112.05;;;87.40;;
70592;SDS011;58294;42.988;20.338;2024-02-26T07:08:17;115.32;;;83.93;;
70592;SDS011;58294;42.988;20.338;2024-02-26T07:10:43;115.28;;;85.88;;
70592;SDS011;58294;42.988;20.338;2024-02-26T07:13:09;87.63;;;69.95;;
70592;SDS011;58294;42.988;20.338;2024-02-26T07:15:35;105.93;;;86.85;;
70592;SDS011;58294;42.988;20.338;2024-02-26T07:18:00;129.20;;;101.53;;
70592;SDS011;58294;42.988;20.338;2024-02-26T07:20:29;127.95;;;98.05;;
70592;SDS011;58294;42.988;20.338;2024-02-26T07:22:56;98.97;;;77.00;;
70592;SDS011;58294;42.988;20.338;2024-02-26T07:25:22;70.78;;;56.45;;
70592;SDS011;58294;42.988;20.338;2024-02-26T07:27:49;78.38;;;60.90;;
70592;SDS011;58294;42.988;20.338;2024-02-26T07:30:15;71.50;;;57.40;;
70592;SDS011;58294;42.988;20.338;2024-02-26T07:32:42;63.17;;;52.88;;
70592;SDS011;58294;42.988;20.338;2024-02-26T07:35:08;70.72;;;61.15;;
70592;SDS011;58294;42.988;20.338;2024-02-26T07:37:34;65.38;;;52.90;;
70592;SDS011;58294;42.988;20.338;2024-02-26T07:40:00;55.92;;;43.15;;
70592;SDS011;58294;42.988;20.338;2024-02-26T07:42:26;42.90;;;33.50;;
70592;SDS011;58294;42.988;20.338;2024-02-26T07:44:51;37.05;;;31.58;;
70592;SDS011;58294;42.988;20.338;2024-02-26T07:47:18;37.92;;;32.13;;
70592;SDS011;58294;42.988;20.338;2024-02-26T07:49:44;31.60;;;23.27;;
70592;SDS011;58294;42.988;20.338;2024-02-26T07:52:10;28.10;;;24.10;;
70592;SDS011;58294;42.988;20.338;2024-02-26T07:54:37;47.40;;;35.40;;
70592;SDS011;58294;42.988;20.338;2024-02-26T07:57:03;94.47;;;52.58;;
70592;SDS011;58294;42.988;20.338;2024-02-26T07:59:30;100.75;;;52.47;;
70592;SDS011;58294;42.988;20.338;2024-02-26T08:01:57;278.73;;;79.97;;
70592;SDS011;58294;42.988;20.338;2024-02-26T08:04:24;270.58;;;78.15;;
70592;SDS011;58294;42.988;20.338;2024-02-26T08:06:51;37.92;;;28.40;;
70592;SDS011;58294;42.988;20.338;2024-02-26T08:09:17;44.33;;;33.33;;
70592;SDS011;58294;42.988;20.338;2024-02-26T08:11:43;37.10;;;29.25;;
70592;SDS011;58294;42.988;20.338;2024-02-26T08:14:08;37.72;;;32.03;;
70592;SDS011;58294;42.988;20.338;2024-02-26T08:16:34;43.38;;;32.13;;
70592;SDS011;58294;42.988;20.338;2024-02-26T08:19:00;36.53;;;30.35;;
70592;SDS011;58294;42.988;20.338;2024-02-26T08:21:26;52.10;;;30.75;;
70592;SDS011;58294;42.988;20.338;2024-02-26T08:23:52;66.57;;;51.22;;
70592;SDS011;58294;42.988;20.338;2024-02-26T08:26:17;37.92;;;26.63;;
70592;SDS011;58294;42.988;20.338;2024-02-26T08:28:45;24.17;;;20.38;;
70592;SDS011;58294;42.988;20.338;2024-02-26T08:31:13;18.67;;;14.05;;
70592;SDS011;58294;42.988;20.338;2024-02-26T08:33:38;20.27;;;17.25;;
70592;SDS011;58294;42.988;20.338;2024-02-26T08:36:05;19.45;;;16.92;;
70592;SDS011;58294;42.988;20.338;2024-02-26T08:38:31;24.10;;;18.60;;
70592;SDS011;58294;42.988;20.338;2024-02-26T08:40:59;26.10;;;19.60;;
70592;SDS011;58294;42.988;20.338;2024-02-26T08:43:27;69.07;;;30.40;;
70592;SDS011;58294;42.988;20.338;2024-02-26T08:45:53;50.63;;;24.75;;
70592;SDS011;58294;42.988;20.338;2024-02-26T08:48:19;68.10;;;24.35;;
70592;SDS011;58294;42.988;20.338;2024-02-26T08:50:45;50.95;;;24.45;;
70592;SDS011;58294;42.988;20.338;2024-02-26T08:53:11;27.92;;;18.30;;
70592;SDS011;58294;42.988;20.338;2024-02-26T08:55:38;18.10;;;12.23;;
70592;SDS011;58294;42.988;20.338;2024-02-26T08:58:04;33.45;;;15.38;;
70592;SDS011;58294;42.988;20.338;2024-02-26T09:00:29;23.70;;;16.55;;
70592;SDS011;58294;42.988;20.338;2024-02-26T09:02:56;42.53;;;38.17;;
70592;SDS011;58294;42.988;20.338;2024-02-26T09:05:22;26.08;;;18.40;;
70592;SDS011;58294;42.988;20.338;2024-02-26T09:07:47;25.10;;;13.55;;
70592;SDS011;58294;42.988;20.338;2024-02-26T09:10:13;33.08;;;17.33;;
70592;SDS011;58294;42.988;20.338;2024-02-26T09:12:39;13.65;;;10.85;;
70592;SDS011;58294;42.988;20.338;2024-02-26T09:15:06;15.10;;;12.77;;
70592;SDS011;58294;42.988;20.338;2024-02-26T09:17:32;18.27;;;14.15;;
70592;SDS011;58294;42.988;20.338;2024-02-26T09:19:58;18.05;;;14.73;;
70592;SDS011;58294;42.988;20.338;2024-02-26T09:22:25;16.20;;;12.25;;
70592;SDS011;58294;42.988;20.338;2024-02-26T09:24:51;17.23;;;11.05;;
70592;SDS011;58294;42.988;20.338;2024-02-26T09:27:18;101.35;;;27.85;;
70592;SDS011;58294;42.988;20.338;2024-02-26T09:29:44;30.10;;;15.02;;
70592;SDS011;58294;42.988;20.338;2024-02-26T09:32:11;20.08;;;13.13;;
70592;SDS011;58294;42.988;20.338;2024-02-26T09:34:39;24.90;;;15.55;;
70592;SDS011;58294;42.988;20.338;2024-02-26T09:37:06;23.85;;;15.98;;
70592;SDS011;58294;42.988;20.338;2024-02-26T09:39:32;19.70;;;13.38;;
70592;SDS011;58294;42.988;20.338;2024-02-26T09:41:57;20.70;;;14.35;;
70592;SDS011;58294;42.988;20.338;2024-02-26T09:44:26;17.50;;;11.95;;
70592;SDS011;58294;42.988;20.338;2024-02-26T09:46:55;15.30;;;13.50;;
70592;SDS011;58294;42.988;20.338;2024-02-26T09:49:23;22.33;;;16.52;;
70592;SDS011;58294;42.988;20.338;2024-02-26T09:51:49;21.73;;;19.42;;
70592;SDS011;58294;42.988;20.338;2024-02-26T09:54:16;24.63;;;17.05;;
70592;SDS011;58294;42.988;20.338;2024-02-26T09:56:42;9.57;;;6.15;;
70592;SDS011;58294;42.988;20.338;2024-02-26T09:59:10;112.93;;;103.85;;
70592;SDS011;58294;42.988;20.338;2024-02-26T10:01:42;8.30;;;6.88;;
70592;SDS011;58294;42.988;20.338;2024-02-26T10:04:08;11.13;;;6.13;;
70592;SDS011;58294;42.988;20.338;2024-02-26T10:06:36;29.95;;;11.23;;
70592;SDS011;58294;42.988;20.338;2024-02-26T10:09:03;16.58;;;12.23;;
70592;SDS011;58294;42.988;20.338;2024-02-26T10:11:32;9.90;;;5.97;;
70592;SDS011;58294;42.988;20.338;2024-02-26T10:13:58;7.65;;;5.53;;
70592;SDS011;58294;42.988;20.338;2024-02-26T10:16:24;8.68;;;5.20;;
70592;SDS011;58294;42.988;20.338;2024-02-26T10:18:51;11.18;;;10.13;;
70592;SDS011;58294;42.988;20.338;2024-02-26T10:21:21;7.05;;;6.03;;
70592;SDS011;58294;42.988;20.338;2024-02-26T10:23:48;8.63;;;6.18;;
70592;SDS011;58294;42.988;20.338;2024-02-26T10:26:15;9.18;;;4.90;;
70592;SDS011;58294;42.988;20.338;2024-02-26T10:28:42;6.63;;;4.63;;
70592;SDS011;58294;42.988;20.338;2024-02-26T10:31:09;9.30;;;5.60;;
70592;SDS011;58294;42.988;20.338;2024-02-26T10:33:36;6.18;;;3.70;;
70592;SDS011;58294;42.988;20.338;2024-02-26T10:36:05;7.32;;;4.53;;
70592;SDS011;58294;42.988;20.338;2024-02-26T10:38:32;9.40;;;5.93;;
70592;SDS011;58294;42.988;20.338;2024-02-26T10:40:59;7.53;;;5.10;;
70592;SDS011;58294;42.988;20.338;2024-02-26T10:43:25;9.25;;;4.97;;
70592;SDS011;58294;42.988;20.338;2024-02-26T10:45:51;6.45;;;4.10;;
70592;SDS011;58294;42.988;20.338;2024-02-26T10:48:17;5.80;;;4.45;;
70592;SDS011;58294;42.988;20.338;2024-02-26T10:50:43;9.75;;;4.68;;
70592;SDS011;58294;42.988;20.338;2024-02-26T10:53:13;10.95;;;5.93;;
70592;SDS011;58294;42.988;20.338;2024-02-26T10:55:40;11.20;;;5.60;;
70592;SDS011;58294;42.988;20.338;2024-02-26T10:58:08;15.02;;;5.95;;
70592;SDS011;58294;42.988;20.338;2024-02-26T11:00:37;9.68;;;4.97;;
70592;SDS011;58294;42.988;20.338;2024-02-26T11:03:04;7.90;;;5.07;;
70592;SDS011;58294;42.988;20.338;2024-02-26T11:05:31;5.55;;;4.28;;
70592;SDS011;58294;42.988;20.338;2024-02-26T11:07:59;7.43;;;4.57;;
70592;SDS011;58294;42.988;20.338;2024-02-26T11:10:26;9.05;;;4.03;;
70592;SDS011;58294;42.988;20.338;2024-02-26T11:12:55;12.90;;;5.20;;
70592;SDS011;58294;42.988;20.338;2024-02-26T11:15:24;6.38;;;4.97;;
70592;SDS011;58294;42.988;20.338;2024-02-26T11:17:52;10.23;;;5.40;;
70592;SDS011;58294;42.988;20.338;2024-02-26T11:20:19;7.63;;;5.40;;
70592;SDS011;58294;42.988;20.338;2024-02-26T11:22:45;22.67;;;6.20;;
70592;SDS011;58294;42.988;20.338;2024-02-26T11:25:11;14.55;;;7.13;;
70592;SDS011;58294;42.988;20.338;2024-02-26T11:27:45;6.40;;;4.68;;
70592;SDS011;58294;42.988;20.338;2024-02-26T11:30:14;5.43;;;4.43;;
70592;SDS011;58294;42.988;20.338;2024-02-26T11:32:43;11.48;;;5.82;;
70592;SDS011;58294;42.988;20.338;2024-02-26T11:35:18;10.35;;;5.22;;
70592;SDS011;58294;42.988;20.338;2024-02-26T11:37:51;6.22;;;4.07;;
70592;SDS011;58294;42.988;20.338;2024-02-26T11:40:24;4.40;;;3.97;;
70592;SDS011;58294;42.988;20.338;2024-02-26T11:42:51;4.28;;;3.50;;
70592;SDS011;58294;42.988;20.338;2024-02-26T11:48:03;11.27;;;4.85;;
70592;SDS011;58294;42.988;20.338;2024-02-26T11:50:35;8.52;;;3.80;;
70592;SDS011;58294;42.988;20.338;2024-02-26T11:53:23;9.45;;;3.92;;
70592;SDS011;58294;42.988;20.338;2024-02-26T11:58:58;7.53;;;3.33;;
70592;SDS011;58294;42.988;20.338;2024-02-26T12:01:41;22.90;;;15.05;;
70592;SDS011;58294;42.988;20.338;2024-02-26T12:04:18;6.85;;;3.70;;
70592;SDS011;58294;42.988;20.338;2024-02-26T12:06:51;10.32;;;3.90;;
70592;SDS011;58294;42.988;20.338;2024-02-26T12:12:02;7.45;;;3.67;;
70592;SDS011;58294;42.988;20.338;2024-02-26T12:14:29;7.75;;;3.92;;
70592;SDS011;58294;42.988;20.338;2024-02-26T12:16:59;7.28;;;3.35;;
70592;SDS011;58294;42.988;20.338;2024-02-26T12:19:25;7.25;;;3.22;;
70592;SDS011;58294;42.988;20.338;2024-02-26T12:21:53;11.50;;;4.65;;
70592;SDS011;58294;42.988;20.338;2024-02-26T12:24:21;7.43;;;4.45;;
70592;SDS011;58294;42.988;20.338;2024-02-26T12:26:47;9.85;;;4.20;;
70592;SDS011;58294;42.988;20.338;2024-02-26T12:29:13;7.40;;;4.35;;
70592;SDS011;58294;42.988;20.338;2024-02-26T12:31:39;17.73;;;5.40;;
70592;SDS011;58294;42.988;20.338;2024-02-26T12:34:06;12.77;;;4.95;;
70592;SDS011;58294;42.988;20.338;2024-02-26T12:36:34;13.88;;;5.28;;
70592;SDS011;58294;42.988;20.338;2024-02-26T12:39:04;14.80;;;7.40;;
70592;SDS011;58294;42.988;20.338;2024-02-26T12:41:34;8.40;;;4.20;;
70592;SDS011;58294;42.988;20.338;2024-02-26T12:44:02;12.93;;;4.13;;
70592;SDS011;58294;42.988;20.338;2024-02-26T12:46:28;6.93;;;4.32;;
70592;SDS011;58294;42.988;20.338;2024-02-26T12:48:55;6.45;;;2.88;;
70592;SDS011;58294;42.988;20.338;2024-02-26T12:51:23;9.73;;;6.07;;
70592;SDS011;58294;42.988;20.338;2024-02-26T12:53:52;10.93;;;5.70;;
70592;SDS011;58294;42.988;20.338;2024-02-26T12:56:20;9.57;;;4.60;;
70592;SDS011;58294;42.988;20.338;2024-02-26T12:58:48;5.53;;;4.07;;
70592;SDS011;58294;42.988;20.338;2024-02-26T13:01:16;5.45;;;3.10;;
70592;SDS011;58294;42.988;20.338;2024-02-26T13:03:45;9.75;;;3.95;;
70592;SDS011;58294;42.988;20.338;2024-02-26T13:06:11;5.18;;;2.80;;
70592;SDS011;58294;42.988;20.338;2024-02-26T13:08:37;7.15;;;3.08;;
70592;SDS011;58294;42.988;20.338;2024-02-26T13:11:03;6.10;;;3.75;;
70592;SDS011;58294;42.988;20.338;2024-02-26T13:13:29;14.23;;;6.00;;
70592;SDS011;58294;42.988;20.338;2024-02-26T13:16:06;26.13;;;7.50;;
70592;SDS011;58294;42.988;20.338;2024-02-26T13:18:40;6.53;;;3.80;;
70592;SDS011;58294;42.988;20.338;2024-02-26T13:21:14;8.20;;;4.32;;
70592;SDS011;58294;42.988;20.338;2024-02-26T13:23:41;12.23;;;5.47;;
70592;SDS011;58294;42.988;20.338;2024-02-26T13:26:08;7.07;;;2.83;;
70592;SDS011;58294;42.988;20.338;2024-02-26T13:28:34;6.28;;;4.07;;
70592;SDS011;58294;42.988;20.338;2024-02-26T13:31:00;7.55;;;4.10;;
70592;SDS011;58294;42.988;20.338;2024-02-26T13:33:28;10.35;;;5.03;;
70592;SDS011;58294;42.988;20.338;2024-02-26T13:35:55;9.55;;;6.47;;
70592;SDS011;58294;42.988;20.338;2024-02-26T13:38:22;8.32;;;5.93;;
70592;SDS011;58294;42.988;20.338;2024-02-26T13:40:49;11.05;;;8.13;;
70592;SDS011;58294;42.988;20.338;2024-02-26T13:43:15;16.05;;;4.88;;
70592;SDS011;58294;42.988;20.338;2024-02-26T13:45:41;10.25;;;4.38;;
70592;SDS011;58294;42.988;20.338;2024-02-26T13:48:08;7.50;;;4.32;;
70592;SDS011;58294;42.988;20.338;2024-02-26T13:50:36;31.60;;;6.70;;
70592;SDS011;58294;42.988;20.338;2024-02-26T13:53:02;11.07;;;4.55;;
70592;SDS011;58294;42.988;20.338;2024-02-26T13:55:29;12.25;;;6.82;;
70592;SDS011;58294;42.988;20.338;2024-02-26T13:57:57;15.95;;;7.22;;
70592;SDS011;58294;42.988;20.338;2024-02-26T14:00:24;11.43;;;4.65;;
70592;SDS011;58294;42.988;20.338;2024-02-26T14:02:51;8.82;;;5.53;;
70592;SDS011;58294;42.988;20.338;2024-02-26T14:05:17;10.05;;;4.00;;
70592;SDS011;58294;42.988;20.338;2024-02-26T14:07:43;9.27;;;6.65;;
70592;SDS011;58294;42.988;20.338;2024-02-26T14:10:12;17.30;;;8.82;;
70592;SDS011;58294;42.988;20.338;2024-02-26T14:12:38;25.77;;;8.18;;
70592;SDS011;58294;42.988;20.338;2024-02-26T14:15:07;237.27;;;50.30;;
70592;SDS011;58294;42.988;20.338;2024-02-26T14:17:34;117.30;;;32.75;;
70592;SDS011;58294;42.988;20.338;2024-02-26T14:20:00;9.63;;;5.43;;